Terminal Aerodrome Forecast
Issued by NWS

Home | Current Version | Previous Version | Graphics & Text | Print | Product List | Glossary On
Versions: 1 2 3 4 5 6 7 8 9 10 11 12 13 14 15 16 17 18 19 20 21 22 23 24 25 26 27 28 29
000
FTUS43 KGRB 242200 AAB
TAFAUW
TAF AMD
KAUW 242206Z 2422/2518 20005KT P6SM SCT025 OVC050
     FM242300 21005KT 6SM BR OVC025
      TEMPO 2501/2504 4SM BR OVC015
     FM250400 26006KT 2SM BR BKN006 OVC012
     FM251000 29011KT P6SM SCT015=

USA.gov is the U.S. government's official web portal to all federal, state and local government web resources and services.